sensor_id;sensor_type;location;lat;lon;timestamp;P1;durP1;ratioP1;P2;durP2;ratioP2
36191;SDS011;22233;42.708;23.360;2022-11-15T00:00:31;29.70;;;16.55;;
36191;SDS011;22233;42.708;23.360;2022-11-15T00:02:57;30.75;;;17.20;;
36191;SDS011;22233;42.708;23.360;2022-11-15T00:05:22;32.50;;;17.02;;
36191;SDS011;22233;42.708;23.360;2022-11-15T00:07:47;35.85;;;18.50;;
36191;SDS011;22233;42.708;23.360;2022-11-15T00:10:13;34.70;;;17.33;;
36191;SDS011;22233;42.708;23.360;2022-11-15T00:12:38;31.73;;;18.27;;
36191;SDS011;22233;42.708;23.360;2022-11-15T00:15:04;36.33;;;18.20;;
36191;SDS011;22233;42.708;23.360;2022-11-15T00:17:30;34.53;;;17.15;;
36191;SDS011;22233;42.708;23.360;2022-11-15T00:19:55;30.23;;;16.35;;
36191;SDS011;22233;42.708;23.360;2022-11-15T00:22:21;31.08;;;16.98;;
36191;SDS011;22233;42.708;23.360;2022-11-15T00:24:46;41.65;;;19.42;;
36191;SDS011;22233;42.708;23.360;2022-11-15T00:27:12;35.60;;;18.15;;
36191;SDS011;22233;42.708;23.360;2022-11-15T00:29:38;37.28;;;17.52;;
36191;SDS011;22233;42.708;23.360;2022-11-15T00:32:08;31.17;;;14.63;;
36191;SDS011;22233;42.708;23.360;2022-11-15T00:34:36;29.38;;;16.52;;
36191;SDS011;22233;42.708;23.360;2022-11-15T00:37:01;37.53;;;17.50;;
36191;SDS011;22233;42.708;23.360;2022-11-15T00:39:27;21.80;;;12.27;;
36191;SDS011;22233;42.708;23.360;2022-11-15T00:41:52;28.38;;;14.52;;
36191;SDS011;22233;42.708;23.360;2022-11-15T00:44:17;27.00;;;15.98;;
36191;SDS011;22233;42.708;23.360;2022-11-15T00:46:43;30.42;;;16.35;;
36191;SDS011;22233;42.708;23.360;2022-11-15T00:49:08;28.52;;;15.82;;
36191;SDS011;22233;42.708;23.360;2022-11-15T00:51:33;30.48;;;16.40;;
36191;SDS011;22233;42.708;23.360;2022-11-15T00:53:59;27.35;;;15.07;;
36191;SDS011;22233;42.708;23.360;2022-11-15T00:56:25;25.65;;;14.98;;
36191;SDS011;22233;42.708;23.360;2022-11-15T00:58:52;30.48;;;15.93;;
36191;SDS011;22233;42.708;23.360;2022-11-15T01:01:17;31.25;;;16.00;;
36191;SDS011;22233;42.708;23.360;2022-11-15T01:03:50;29.80;;;16.50;;
36191;SDS011;22233;42.708;23.360;2022-11-15T01:06:15;30.90;;;16.25;;
36191;SDS011;22233;42.708;23.360;2022-11-15T01:08:41;31.08;;;16.02;;
36191;SDS011;22233;42.708;23.360;2022-11-15T01:11:07;33.92;;;16.60;;
36191;SDS011;22233;42.708;23.360;2022-11-15T01:13:35;29.27;;;14.77;;
36191;SDS011;22233;42.708;23.360;2022-11-15T01:16:14;26.95;;;13.82;;
36191;SDS011;22233;42.708;23.360;2022-11-15T01:18:42;26.48;;;16.17;;
36191;SDS011;22233;42.708;23.360;2022-11-15T01:21:09;25.83;;;15.30;;
36191;SDS011;22233;42.708;23.360;2022-11-15T01:23:37;28.63;;;15.98;;
36191;SDS011;22233;42.708;23.360;2022-11-15T01:26:04;30.70;;;16.17;;
36191;SDS011;22233;42.708;23.360;2022-11-15T01:28:32;32.88;;;16.27;;
36191;SDS011;22233;42.708;23.360;2022-11-15T01:30:59;29.85;;;14.57;;
36191;SDS011;22233;42.708;23.360;2022-11-15T01:33:26;35.97;;;17.52;;
36191;SDS011;22233;42.708;23.360;2022-11-15T01:35:52;33.50;;;16.33;;
36191;SDS011;22233;42.708;23.360;2022-11-15T01:38:17;37.25;;;16.85;;
36191;SDS011;22233;42.708;23.360;2022-11-15T01:40:43;43.33;;;16.90;;
36191;SDS011;22233;42.708;23.360;2022-11-15T01:45:52;30.80;;;14.60;;
36191;SDS011;22233;42.708;23.360;2022-11-15T01:48:25;36.80;;;16.35;;
36191;SDS011;22233;42.708;23.360;2022-11-15T01:50:56;31.88;;;16.08;;
36191;SDS011;22233;42.708;23.360;2022-11-15T01:53:23;31.88;;;15.73;;
36191;SDS011;22233;42.708;23.360;2022-11-15T01:55:50;35.80;;;15.70;;
36191;SDS011;22233;42.708;23.360;2022-11-15T01:58:17;39.97;;;14.48;;
36191;SDS011;22233;42.708;23.360;2022-11-15T02:00:42;28.40;;;14.05;;
36191;SDS011;22233;42.708;23.360;2022-11-15T02:03:08;29.75;;;16.80;;
36191;SDS011;22233;42.708;23.360;2022-11-15T02:05:33;27.83;;;15.20;;
36191;SDS011;22233;42.708;23.360;2022-11-15T02:08:01;28.58;;;13.50;;
36191;SDS011;22233;42.708;23.360;2022-11-15T02:10:27;31.75;;;15.23;;
36191;SDS011;22233;42.708;23.360;2022-11-15T02:12:53;27.67;;;15.30;;
36191;SDS011;22233;42.708;23.360;2022-11-15T02:15:20;25.42;;;13.85;;
36191;SDS011;22233;42.708;23.360;2022-11-15T02:20:46;21.30;;;11.45;;
36191;SDS011;22233;42.708;23.360;2022-11-15T02:23:36;17.60;;;11.52;;
36191;SDS011;22233;42.708;23.360;2022-11-15T02:29:05;17.70;;;11.52;;
36191;SDS011;22233;42.708;23.360;2022-11-15T02:31:39;25.33;;;13.13;;
36191;SDS011;22233;42.708;23.360;2022-11-15T02:34:34;23.40;;;11.75;;
36191;SDS011;22233;42.708;23.360;2022-11-15T02:37:24;24.40;;;11.80;;
36191;SDS011;22233;42.708;23.360;2022-11-15T02:42:33;30.13;;;12.55;;
36191;SDS011;22233;42.708;23.360;2022-11-15T02:45:23;30.05;;;13.65;;
36191;SDS011;22233;42.708;23.360;2022-11-15T02:47:53;23.30;;;12.77;;
36191;SDS011;22233;42.708;23.360;2022-11-15T02:50:23;29.38;;;15.00;;
36191;SDS011;22233;42.708;23.360;2022-11-15T02:52:52;22.58;;;11.13;;
36191;SDS011;22233;42.708;23.360;2022-11-15T02:55:28;22.30;;;11.95;;
36191;SDS011;22233;42.708;23.360;2022-11-15T03:12:23;24.80;;;12.40;;
36191;SDS011;22233;42.708;23.360;2022-11-15T03:17:43;25.45;;;11.10;;
36191;SDS011;22233;42.708;23.360;2022-11-15T03:20:16;21.63;;;11.93;;
36191;SDS011;22233;42.708;23.360;2022-11-15T03:22:44;34.33;;;13.30;;
36191;SDS011;22233;42.708;23.360;2022-11-15T03:25:13;22.77;;;12.57;;
36191;SDS011;22233;42.708;23.360;2022-11-15T03:27:49;20.85;;;12.00;;
36191;SDS011;22233;42.708;23.360;2022-11-15T03:30:17;23.67;;;12.65;;
36191;SDS011;22233;42.708;23.360;2022-11-15T03:32:47;22.48;;;11.27;;
36191;SDS011;22233;42.708;23.360;2022-11-15T03:35:19;22.58;;;11.85;;
36191;SDS011;22233;42.708;23.360;2022-11-15T03:40:44;22.58;;;12.35;;
36191;SDS011;22233;42.708;23.360;2022-11-15T03:46:21;14.63;;;7.55;;
36191;SDS011;22233;42.708;23.360;2022-11-15T03:48:52;13.38;;;8.13;;
36191;SDS011;22233;42.708;23.360;2022-11-15T03:51:23;19.55;;;8.45;;
36191;SDS011;22233;42.708;23.360;2022-11-15T03:53:48;22.50;;;10.35;;
36191;SDS011;22233;42.708;23.360;2022-11-15T03:56:14;27.08;;;14.55;;
36191;SDS011;22233;42.708;23.360;2022-11-15T03:58:39;29.70;;;15.77;;
36191;SDS011;22233;42.708;23.360;2022-11-15T04:01:05;30.23;;;14.63;;
36191;SDS011;22233;42.708;23.360;2022-11-15T04:03:30;33.22;;;16.90;;
36191;SDS011;22233;42.708;23.360;2022-11-15T04:05:55;33.35;;;14.75;;
36191;SDS011;22233;42.708;23.360;2022-11-15T04:08:21;31.75;;;14.98;;
36191;SDS011;22233;42.708;23.360;2022-11-15T04:10:48;29.05;;;14.73;;
36191;SDS011;22233;42.708;23.360;2022-11-15T04:13:14;36.20;;;15.18;;
36191;SDS011;22233;42.708;23.360;2022-11-15T04:15:39;26.42;;;13.90;;
36191;SDS011;22233;42.708;23.360;2022-11-15T04:18:05;20.98;;;12.23;;
36191;SDS011;22233;42.708;23.360;2022-11-15T04:20:30;32.83;;;13.43;;
36191;SDS011;22233;42.708;23.360;2022-11-15T04:26:02;23.73;;;13.00;;
36191;SDS011;22233;42.708;23.360;2022-11-15T04:28:29;23.98;;;14.05;;
36191;SDS011;22233;42.708;23.360;2022-11-15T04:30:55;30.25;;;13.90;;
36191;SDS011;22233;42.708;23.360;2022-11-15T04:33:21;30.55;;;14.25;;
36191;SDS011;22233;42.708;23.360;2022-11-15T04:35:46;25.13;;;14.85;;
36191;SDS011;22233;42.708;23.360;2022-11-15T04:38:32;27.20;;;12.50;;
36191;SDS011;22233;42.708;23.360;2022-11-15T04:40:58;25.08;;;14.02;;
36191;SDS011;22233;42.708;23.360;2022-11-15T04:43:23;24.08;;;14.43;;
36191;SDS011;22233;42.708;23.360;2022-11-15T04:45:48;23.30;;;11.50;;
36191;SDS011;22233;42.708;23.360;2022-11-15T04:48:14;27.95;;;14.52;;
36191;SDS011;22233;42.708;23.360;2022-11-15T04:50:39;29.60;;;14.20;;
36191;SDS011;22233;42.708;23.360;2022-11-15T04:53:05;28.00;;;14.93;;
36191;SDS011;22233;42.708;23.360;2022-11-15T04:55:30;30.00;;;15.27;;
36191;SDS011;22233;42.708;23.360;2022-11-15T04:57:59;27.90;;;15.35;;
36191;SDS011;22233;42.708;23.360;2022-11-15T05:00:26;31.25;;;17.63;;
36191;SDS011;22233;42.708;23.360;2022-11-15T05:02:52;36.10;;;16.88;;
36191;SDS011;22233;42.708;23.360;2022-11-15T05:05:36;30.05;;;15.52;;
36191;SDS011;22233;42.708;23.360;2022-11-15T05:08:02;28.60;;;15.18;;
36191;SDS011;22233;42.708;23.360;2022-11-15T05:10:27;31.20;;;15.85;;
36191;SDS011;22233;42.708;23.360;2022-11-15T05:12:53;28.48;;;14.65;;
36191;SDS011;22233;42.708;23.360;2022-11-15T05:15:18;25.15;;;13.15;;
36191;SDS011;22233;42.708;23.360;2022-11-15T05:17:44;25.30;;;12.95;;
36191;SDS011;22233;42.708;23.360;2022-11-15T05:20:10;22.95;;;14.10;;
36191;SDS011;22233;42.708;23.360;2022-11-15T05:22:36;36.03;;;14.75;;
36191;SDS011;22233;42.708;23.360;2022-11-15T05:25:02;25.08;;;14.05;;
36191;SDS011;22233;42.708;23.360;2022-11-15T05:27:33;23.42;;;13.90;;
36191;SDS011;22233;42.708;23.360;2022-11-15T05:29:58;26.02;;;13.90;;
36191;SDS011;22233;42.708;23.360;2022-11-15T05:32:24;30.77;;;15.82;;
36191;SDS011;22233;42.708;23.360;2022-11-15T05:34:50;26.63;;;14.00;;
36191;SDS011;22233;42.708;23.360;2022-11-15T05:37:16;27.15;;;15.75;;
36191;SDS011;22233;42.708;23.360;2022-11-15T05:39:43;27.35;;;14.05;;
36191;SDS011;22233;42.708;23.360;2022-11-15T05:44:43;22.17;;;13.27;;
36191;SDS011;22233;42.708;23.360;2022-11-15T05:47:23;24.98;;;14.48;;
36191;SDS011;22233;42.708;23.360;2022-11-15T05:49:51;26.45;;;13.90;;
36191;SDS011;22233;42.708;23.360;2022-11-15T05:52:19;22.77;;;12.40;;
36191;SDS011;22233;42.708;23.360;2022-11-15T05:54:47;21.92;;;12.65;;
36191;SDS011;22233;42.708;23.360;2022-11-15T05:57:13;24.02;;;13.10;;
36191;SDS011;22233;42.708;23.360;2022-11-15T05:59:39;29.83;;;15.82;;
36191;SDS011;22233;42.708;23.360;2022-11-15T06:02:06;28.37;;;16.40;;
36191;SDS011;22233;42.708;23.360;2022-11-15T06:04:31;32.00;;;15.90;;
36191;SDS011;22233;42.708;23.360;2022-11-15T06:06:58;31.60;;;15.43;;
36191;SDS011;22233;42.708;23.360;2022-11-15T06:09:24;29.13;;;15.45;;
36191;SDS011;22233;42.708;23.360;2022-11-15T06:11:49;29.02;;;14.35;;
36191;SDS011;22233;42.708;23.360;2022-11-15T06:14:15;27.75;;;14.68;;
36191;SDS011;22233;42.708;23.360;2022-11-15T06:16:40;34.05;;;15.73;;
36191;SDS011;22233;42.708;23.360;2022-11-15T06:19:06;28.90;;;13.50;;
36191;SDS011;22233;42.708;23.360;2022-11-15T06:21:32;28.20;;;13.10;;
36191;SDS011;22233;42.708;23.360;2022-11-15T06:23:58;30.98;;;14.23;;
36191;SDS011;22233;42.708;23.360;2022-11-15T06:26:23;29.75;;;13.43;;
36191;SDS011;22233;42.708;23.360;2022-11-15T06:28:49;23.05;;;12.77;;
36191;SDS011;22233;42.708;23.360;2022-11-15T06:31:14;19.55;;;11.18;;
36191;SDS011;22233;42.708;23.360;2022-11-15T06:33:40;26.83;;;11.55;;
36191;SDS011;22233;42.708;23.360;2022-11-15T06:36:08;27.52;;;13.27;;
36191;SDS011;22233;42.708;23.360;2022-11-15T06:38:35;23.30;;;11.95;;
36191;SDS011;22233;42.708;23.360;2022-11-15T06:41:02;24.90;;;12.32;;
36191;SDS011;22233;42.708;23.360;2022-11-15T06:45:54;22.63;;;11.75;;
36191;SDS011;22233;42.708;23.360;2022-11-15T06:48:20;30.73;;;14.98;;
36191;SDS011;22233;42.708;23.360;2022-11-15T06:50:51;25.45;;;12.85;;
36191;SDS011;22233;42.708;23.360;2022-11-15T06:53:18;19.55;;;9.45;;
36191;SDS011;22233;42.708;23.360;2022-11-15T06:55:43;23.42;;;11.18;;
36191;SDS011;22233;42.708;23.360;2022-11-15T06:58:08;19.48;;;9.93;;
36191;SDS011;22233;42.708;23.360;2022-11-15T07:00:34;24.75;;;11.15;;
36191;SDS011;22233;42.708;23.360;2022-11-15T07:03:00;19.92;;;9.13;;
36191;SDS011;22233;42.708;23.360;2022-11-15T07:05:25;28.88;;;11.63;;
36191;SDS011;22233;42.708;23.360;2022-11-15T07:07:55;29.52;;;11.85;;
36191;SDS011;22233;42.708;23.360;2022-11-15T07:10:21;22.63;;;10.30;;
36191;SDS011;22233;42.708;23.360;2022-11-15T07:12:49;22.58;;;10.55;;
36191;SDS011;22233;42.708;23.360;2022-11-15T07:15:16;24.55;;;10.68;;
36191;SDS011;22233;42.708;23.360;2022-11-15T07:17:42;19.88;;;9.70;;
36191;SDS011;22233;42.708;23.360;2022-11-15T07:20:07;16.48;;;7.43;;
36191;SDS011;22233;42.708;23.360;2022-11-15T07:22:33;15.65;;;6.93;;
36191;SDS011;22233;42.708;23.360;2022-11-15T07:24:59;17.67;;;7.13;;
36191;SDS011;22233;42.708;23.360;2022-11-15T07:27:24;15.70;;;7.97;;
36191;SDS011;22233;42.708;23.360;2022-11-15T07:29:49;17.20;;;8.40;;
36191;SDS011;22233;42.708;23.360;2022-11-15T07:32:15;16.85;;;7.75;;
36191;SDS011;22233;42.708;23.360;2022-11-15T07:34:40;15.27;;;7.82;;
36191;SDS011;22233;42.708;23.360;2022-11-15T07:37:06;15.10;;;8.63;;
36191;SDS011;22233;42.708;23.360;2022-11-15T07:39:31;16.77;;;8.10;;
36191;SDS011;22233;42.708;23.360;2022-11-15T07:41:57;18.63;;;8.55;;
36191;SDS011;22233;42.708;23.360;2022-11-15T07:44:41;18.13;;;8.95;;
36191;SDS011;22233;42.708;23.360;2022-11-15T07:47:06;21.55;;;10.82;;
36191;SDS011;22233;42.708;23.360;2022-11-15T07:49:32;21.45;;;9.63;;
36191;SDS011;22233;42.708;23.360;2022-11-15T07:51:57;22.08;;;9.40;;
36191;SDS011;22233;42.708;23.360;2022-11-15T07:54:22;22.38;;;10.25;;
36191;SDS011;22233;42.708;23.360;2022-11-15T07:56:48;24.48;;;10.80;;
36191;SDS011;22233;42.708;23.360;2022-11-15T07:59:13;23.88;;;11.18;;
36191;SDS011;22233;42.708;23.360;2022-11-15T08:01:39;18.15;;;9.00;;
36191;SDS011;22233;42.708;23.360;2022-11-15T08:04:04;18.13;;;9.07;;
36191;SDS011;22233;42.708;23.360;2022-11-15T08:06:29;16.20;;;8.93;;
36191;SDS011;22233;42.708;23.360;2022-11-15T08:08:55;26.67;;;10.10;;
36191;SDS011;22233;42.708;23.360;2022-11-15T08:11:20;19.05;;;10.35;;
36191;SDS011;22233;42.708;23.360;2022-11-15T08:13:46;20.92;;;11.13;;
36191;SDS011;22233;42.708;23.360;2022-11-15T08:16:11;21.60;;;9.45;;
36191;SDS011;22233;42.708;23.360;2022-11-15T08:18:37;21.65;;;10.23;;
36191;SDS011;22233;42.708;23.360;2022-11-15T08:21:03;16.13;;;8.82;;
36191;SDS011;22233;42.708;23.360;2022-11-15T08:23:29;15.80;;;8.13;;
36191;SDS011;22233;42.708;23.360;2022-11-15T08:26:04;15.98;;;9.45;;
36191;SDS011;22233;42.708;23.360;2022-11-15T08:28:30;16.58;;;8.90;;
36191;SDS011;22233;42.708;23.360;2022-11-15T08:30:56;22.77;;;10.15;;
36191;SDS011;22233;42.708;23.360;2022-11-15T08:33:22;16.65;;;9.23;;
36191;SDS011;22233;42.708;23.360;2022-11-15T08:35:47;19.23;;;9.35;;
36191;SDS011;22233;42.708;23.360;2022-11-15T08:38:13;17.05;;;9.25;;
36191;SDS011;22233;42.708;23.360;2022-11-15T08:40:39;19.52;;;9.57;;
36191;SDS011;22233;42.708;23.360;2022-11-15T08:43:04;17.00;;;9.15;;
36191;SDS011;22233;42.708;23.360;2022-11-15T08:45:30;16.95;;;9.23;;
36191;SDS011;22233;42.708;23.360;2022-11-15T08:48:01;21.15;;;9.32;;
36191;SDS011;22233;42.708;23.360;2022-11-15T08:50:28;18.45;;;10.38;;
36191;SDS011;22233;42.708;23.360;2022-11-15T08:52:53;21.17;;;9.25;;
36191;SDS011;22233;42.708;23.360;2022-11-15T08:55:19;17.83;;;10.07;;
36191;SDS011;22233;42.708;23.360;2022-11-15T08:57:44;19.67;;;10.20;;
36191;SDS011;22233;42.708;23.360;2022-11-15T09:00:10;24.33;;;11.63;;
36191;SDS011;22233;42.708;23.360;2022-11-15T09:02:37;21.02;;;10.85;;
36191;SDS011;22233;42.708;23.360;2022-11-15T09:05:04;19.50;;;10.27;;
36191;SDS011;22233;42.708;23.360;2022-11-15T09:07:30;27.40;;;11.98;;
36191;SDS011;22233;42.708;23.360;2022-11-15T09:09:56;18.25;;;10.00;;
36191;SDS011;22233;42.708;23.360;2022-11-15T09:12:22;20.58;;;11.30;;
36191;SDS011;22233;42.708;23.360;2022-11-15T09:14:48;17.35;;;9.02;;
36191;SDS011;22233;42.708;23.360;2022-11-15T09:17:13;24.20;;;10.63;;
36191;SDS011;22233;42.708;23.360;2022-11-15T09:19:38;26.83;;;13.55;;
36191;SDS011;22233;42.708;23.360;2022-11-15T09:22:07;26.70;;;11.65;;
36191;SDS011;22233;42.708;23.360;2022-11-15T09:24:33;23.35;;;12.13;;
36191;SDS011;22233;42.708;23.360;2022-11-15T09:26:59;26.80;;;13.25;;
36191;SDS011;22233;42.708;23.360;2022-11-15T09:29:25;21.70;;;10.32;;
36191;SDS011;22233;42.708;23.360;2022-11-15T09:31:53;21.65;;;13.05;;
36191;SDS011;22233;42.708;23.360;2022-11-15T09:34:18;28.58;;;13.70;;
36191;SDS011;22233;42.708;23.360;2022-11-15T09:36:44;29.42;;;14.05;;
36191;SDS011;22233;42.708;23.360;2022-11-15T09:39:10;40.40;;;15.60;;
36191;SDS011;22233;42.708;23.360;2022-11-15T09:41:38;30.27;;;14.95;;
36191;SDS011;22233;42.708;23.360;2022-11-15T09:47:20;29.30;;;15.27;;
36191;SDS011;22233;42.708;23.360;2022-11-15T09:50:00;38.47;;;15.73;;
36191;SDS011;22233;42.708;23.360;2022-11-15T09:52:33;34.60;;;15.13;;
36191;SDS011;22233;42.708;23.360;2022-11-15T09:55:01;31.70;;;16.67;;
36191;SDS011;22233;42.708;23.360;2022-11-15T09:57:43;30.02;;;15.88;;
36191;SDS011;22233;42.708;23.360;2022-11-15T10:00:17;33.58;;;17.35;;
36191;SDS011;22233;42.708;23.360;2022-11-15T10:02:56;33.33;;;16.77;;
36191;SDS011;22233;42.708;23.360;2022-11-15T10:05:54;31.83;;;17.60;;
36191;SDS011;22233;42.708;23.360;2022-11-15T10:11:34;42.78;;;18.25;;
36191;SDS011;22233;42.708;23.360;2022-11-15T10:14:03;40.42;;;20.52;;
36191;SDS011;22233;42.708;23.360;2022-11-15T10:19:26;40.08;;;18.88;;
36191;SDS011;22233;42.708;23.360;2022-11-15T10:27:10;41.13;;;17.67;;
36191;SDS011;22233;42.708;23.360;2022-11-15T10:29:40;44.28;;;17.98;;
36191;SDS011;22233;42.708;23.360;2022-11-15T10:32:09;38.25;;;19.65;;
36191;SDS011;22233;42.708;23.360;2022-11-15T10:34:39;39.70;;;19.33;;
36191;SDS011;22233;42.708;23.360;2022-11-15T10:37:04;37.67;;;18.15;;
36191;SDS011;22233;42.708;23.360;2022-11-15T10:39:30;41.83;;;17.95;;
36191;SDS011;22233;42.708;23.360;2022-11-15T10:41:55;38.95;;;19.42;;
36191;SDS011;22233;42.708;23.360;2022-11-15T10:44:31;36.95;;;19.30;;
36191;SDS011;22233;42.708;23.360;2022-11-15T10:47:20;42.65;;;20.88;;
36191;SDS011;22233;42.708;23.360;2022-11-15T10:50:06;38.78;;;21.27;;
36191;SDS011;22233;42.708;23.360;2022-11-15T10:52:52;40.25;;;18.90;;
36191;SDS011;22233;42.708;23.360;2022-11-15T10:55:22;50.28;;;20.98;;
36191;SDS011;22233;42.708;23.360;2022-11-15T10:57:52;42.67;;;20.17;;
36191;SDS011;22233;42.708;23.360;2022-11-15T11:02:46;33.25;;;16.23;;
36191;SDS011;22233;42.708;23.360;2022-11-15T11:05:31;30.13;;;16.45;;
36191;SDS011;22233;42.708;23.360;2022-11-15T11:10:36;31.85;;;15.65;;
36191;SDS011;22233;42.708;23.360;2022-11-15T11:13:14;37.92;;;18.65;;
36191;SDS011;22233;42.708;23.360;2022-11-15T11:15:47;35.30;;;16.77;;
36191;SDS011;22233;42.708;23.360;2022-11-15T11:18:28;33.70;;;16.75;;
36191;SDS011;22233;42.708;23.360;2022-11-15T11:21:18;28.23;;;15.82;;
36191;SDS011;22233;42.708;23.360;2022-11-15T11:23:52;26.20;;;15.30;;
36191;SDS011;22233;42.708;23.360;2022-11-15T11:26:45;38.75;;;16.42;;
36191;SDS011;22233;42.708;23.360;2022-11-15T11:29:38;28.85;;;15.88;;
36191;SDS011;22233;42.708;23.360;2022-11-15T11:32:39;31.20;;;16.02;;
36191;SDS011;22233;42.708;23.360;2022-11-15T11:35:13;31.50;;;16.35;;
36191;SDS011;22233;42.708;23.360;2022-11-15T11:46:09;36.90;;;17.13;;
36191;SDS011;22233;42.708;23.360;2022-11-15T11:48:42;35.08;;;17.13;;
36191;SDS011;22233;42.708;23.360;2022-11-15T11:51:15;33.72;;;16.88;;
36191;SDS011;22233;42.708;23.360;2022-11-15T11:53:56;29.63;;;16.70;;
36191;SDS011;22233;42.708;23.360;2022-11-15T11:56:29;35.03;;;16.30;;
36191;SDS011;22233;42.708;23.360;2022-11-15T11:59:05;34.20;;;17.35;;
36191;SDS011;22233;42.708;23.360;2022-11-15T12:01:39;31.77;;;18.50;;
36191;SDS011;22233;42.708;23.360;2022-11-15T12:04:10;31.75;;;16.48;;
36191;SDS011;22233;42.708;23.360;2022-11-15T12:06:53;30.05;;;17.02;;
36191;SDS011;22233;42.708;23.360;2022-11-15T12:09:41;33.25;;;17.35;;
36191;SDS011;22233;42.708;23.360;2022-11-15T12:12:18;31.77;;;18.13;;
36191;SDS011;22233;42.708;23.360;2022-11-15T12:17:34;31.55;;;15.70;;
36191;SDS011;22233;42.708;23.360;2022-11-15T12:20:21;38.22;;;17.67;;
36191;SDS011;22233;42.708;23.360;2022-11-15T12:22:59;28.83;;;16.40;;
36191;SDS011;22233;42.708;23.360;2022-11-15T12:25:47;33.20;;;16.95;;
36191;SDS011;22233;42.708;23.360;2022-11-15T12:31:05;31.73;;;16.75;;
36191;SDS011;22233;42.708;23.360;2022-11-15T12:33:39;32.28;;;18.52;;
36191;SDS011;22233;42.708;23.360;2022-11-15T12:36:11;34.95;;;16.38;;
36191;SDS011;22233;42.708;23.360;2022-11-15T12:43:51;31.47;;;16.23;;
36191;SDS011;22233;42.708;23.360;2022-11-15T12:48:50;33.88;;;16.25;;
36191;SDS011;22233;42.708;23.360;2022-11-15T12:51:19;26.80;;;15.20;;
36191;SDS011;22233;42.708;23.360;2022-11-15T12:53:47;26.35;;;13.10;;
36191;SDS011;22233;42.708;23.360;2022-11-15T13:15:14;24.48;;;14.52;;
36191;SDS011;22233;42.708;23.360;2022-11-15T13:19:48;29.70;;;14.43;;
36191;SDS011;22233;42.708;23.360;2022-11-15T13:22:20;28.25;;;14.10;;
36191;SDS011;22233;42.708;23.360;2022-11-15T13:25:04;29.25;;;14.15;;
36191;SDS011;22233;42.708;23.360;2022-11-15T13:27:44;29.17;;;14.63;;
36191;SDS011;22233;42.708;23.360;2022-11-15T13:30:20;28.33;;;14.75;;
36191;SDS011;22233;42.708;23.360;2022-11-15T13:32:48;25.65;;;13.88;;
36191;SDS011;22233;42.708;23.360;2022-11-15T13:35:22;27.45;;;14.18;;
36191;SDS011;22233;42.708;23.360;2022-11-15T13:37:49;24.27;;;12.88;;
36191;SDS011;22233;42.708;23.360;2022-11-15T13:40:23;24.50;;;12.77;;
36191;SDS011;22233;42.708;23.360;2022-11-15T13:42:52;28.52;;;12.98;;
36191;SDS011;22233;42.708;23.360;2022-11-15T13:45:18;27.75;;;12.73;;
36191;SDS011;22233;42.708;23.360;2022-11-15T13:47:47;22.40;;;11.68;;
36191;SDS011;22233;42.708;23.360;2022-11-15T13:50:16;22.25;;;12.60;;
36191;SDS011;22233;42.708;23.360;2022-11-15T13:52:42;19.77;;;12.32;;
36191;SDS011;22233;42.708;23.360;2022-11-15T13:55:15;26.13;;;12.68;;
36191;SDS011;22233;42.708;23.360;2022-11-15T13:57:53;21.65;;;12.68;;
36191;SDS011;22233;42.708;23.360;2022-11-15T14:00:41;22.02;;;12.35;;
36191;SDS011;22233;42.708;23.360;2022-11-15T14:05:45;27.25;;;12.90;;
36191;SDS011;22233;42.708;23.360;2022-11-15T14:08:27;21.20;;;11.48;;
36191;SDS011;22233;42.708;23.360;2022-11-15T14:13:42;28.30;;;15.95;;
36191;SDS011;22233;42.708;23.360;2022-11-15T14:16:24;26.98;;;13.40;;
36191;SDS011;22233;42.708;23.360;2022-11-15T14:19:02;27.25;;;15.18;;
36191;SDS011;22233;42.708;23.360;2022-11-15T14:21:28;32.40;;;17.05;;
36191;SDS011;22233;42.708;23.360;2022-11-15T14:24:13;33.53;;;18.35;;
36191;SDS011;22233;42.708;23.360;2022-11-15T14:26:40;39.53;;;19.60;;
36191;SDS011;22233;42.708;23.360;2022-11-15T14:29:28;39.45;;;21.02;;
36191;SDS011;22233;42.708;23.360;2022-11-15T14:32:05;30.38;;;17.63;;
36191;SDS011;22233;42.708;23.360;2022-11-15T14:34:44;34.88;;;18.08;;
36191;SDS011;22233;42.708;23.360;2022-11-15T14:37:29;34.05;;;16.25;;
36191;SDS011;22233;42.708;23.360;2022-11-15T14:39:59;31.02;;;16.63;;
36191;SDS011;22233;42.708;23.360;2022-11-15T14:42:25;30.90;;;15.25;;
36191;SDS011;22233;42.708;23.360;2022-11-15T14:44:51;35.20;;;17.25;;
36191;SDS011;22233;42.708;23.360;2022-11-15T14:47:17;35.03;;;17.90;;
36191;SDS011;22233;42.708;23.360;2022-11-15T14:49:43;33.25;;;18.20;;
36191;SDS011;22233;42.708;23.360;2022-11-15T14:52:25;38.33;;;17.98;;
36191;SDS011;22233;42.708;23.360;2022-11-15T14:54:53;37.65;;;18.90;;
36191;SDS011;22233;42.708;23.360;2022-11-15T14:57:19;37.00;;;19.97;;
36191;SDS011;22233;42.708;23.360;2022-11-15T14:59:45;37.72;;;18.20;;
36191;SDS011;22233;42.708;23.360;2022-11-15T15:02:15;35.88;;;18.13;;
36191;SDS011;22233;42.708;23.360;2022-11-15T15:04:45;37.00;;;18.38;;
36191;SDS011;22233;42.708;23.360;2022-11-15T15:07:11;43.72;;;22.83;;
36191;SDS011;22233;42.708;23.360;2022-11-15T15:09:36;38.75;;;21.40;;
36191;SDS011;22233;42.708;23.360;2022-11-15T15:12:02;39.33;;;21.70;;
36191;SDS011;22233;42.708;23.360;2022-11-15T15:14:27;38.30;;;19.40;;
36191;SDS011;22233;42.708;23.360;2022-11-15T15:16:53;44.88;;;22.15;;
36191;SDS011;22233;42.708;23.360;2022-11-15T15:19:18;34.85;;;18.90;;
36191;SDS011;22233;42.708;23.360;2022-11-15T15:21:43;37.50;;;18.77;;
36191;SDS011;22233;42.708;23.360;2022-11-15T15:24:15;35.92;;;21.13;;
36191;SDS011;22233;42.708;23.360;2022-11-15T15:26:40;35.60;;;19.02;;
36191;SDS011;22233;42.708;23.360;2022-11-15T15:29:06;32.88;;;18.50;;
36191;SDS011;22233;42.708;23.360;2022-11-15T15:31:33;37.72;;;20.13;;
36191;SDS011;22233;42.708;23.360;2022-11-15T15:33:59;34.85;;;18.58;;
36191;SDS011;22233;42.708;23.360;2022-11-15T15:36:24;40.70;;;21.60;;
36191;SDS011;22233;42.708;23.360;2022-11-15T15:38:49;41.60;;;19.58;;
36191;SDS011;22233;42.708;23.360;2022-11-15T15:41:15;39.97;;;20.63;;
36191;SDS011;22233;42.708;23.360;2022-11-15T15:43:41;36.53;;;18.23;;
36191;SDS011;22233;42.708;23.360;2022-11-15T15:46:08;35.95;;;19.95;;
36191;SDS011;22233;42.708;23.360;2022-11-15T15:48:36;49.35;;;19.95;;
36191;SDS011;22233;42.708;23.360;2022-11-15T15:51:03;44.83;;;20.50;;
36191;SDS011;22233;42.708;23.360;2022-11-15T15:53:28;32.15;;;16.88;;
36191;SDS011;22233;42.708;23.360;2022-11-15T15:55:55;34.72;;;19.85;;
36191;SDS011;22233;42.708;23.360;2022-11-15T15:58:20;38.08;;;19.13;;
36191;SDS011;22233;42.708;23.360;2022-11-15T16:00:46;31.08;;;17.42;;
36191;SDS011;22233;42.708;23.360;2022-11-15T16:03:11;32.03;;;18.13;;
36191;SDS011;22233;42.708;23.360;2022-11-15T16:05:36;33.10;;;18.65;;
36191;SDS011;22233;42.708;23.360;2022-11-15T16:08:02;31.83;;;17.20;;
36191;SDS011;22233;42.708;23.360;2022-11-15T16:10:29;34.22;;;17.63;;
36191;SDS011;22233;42.708;23.360;2022-11-15T16:13:01;27.25;;;16.85;;